createdAt,value
2019-06-07T00:01:20.934Z,100.00
2019-06-07T00:03:50.376Z,100.00
2019-06-07T00:06:24.585Z,100.00
2019-06-07T00:08:51.378Z,100.00
2019-06-07T00:11:20.973Z,100.00
2019-06-07T00:13:50.600Z,100.00
2019-06-07T00:16:23.177Z,100.00
2019-06-07T00:18:51.582Z,100.00
2019-06-07T00:22:12.263Z,100.00
2019-06-07T00:23:52.616Z,100.00
2019-06-07T00:26:22.245Z,100.00
2019-06-07T00:28:51.840Z,100.00
2019-06-07T00:31:24.177Z,100.00
2019-06-07T00:33:52.782Z,100.00
2019-06-07T00:36:23.280Z,100.00
2019-06-07T00:38:53.026Z,100.00
2019-06-07T00:41:22.658Z,100.00
2019-06-07T00:43:52.286Z,100.00
2019-06-07T00:46:25.280Z,100.00
2019-06-07T00:48:53.231Z,100.00
2019-06-07T00:51:24.066Z,100.00
2019-06-07T00:53:53.920Z,100.00
2019-06-07T00:56:23.670Z,100.00
2019-06-07T00:59:10.413Z,100.00
2019-06-07T01:01:25.494Z,100.00
2019-06-07T01:03:55.252Z,100.00
2019-06-07T01:06:25.090Z,100.00
2019-06-07T01:08:54.745Z,100.00
2019-06-07T01:11:26.074Z,100.00
2019-06-07T01:13:55.761Z,100.00
2019-06-07T01:16:26.395Z,100.00
2019-06-07T01:18:56.241Z,100.00
2019-06-07T01:21:29.501Z,100.00
2019-06-07T01:24:11.394Z,100.00
2019-06-07T01:26:30.400Z,100.00
2019-06-07T01:28:59.832Z,100.00
2019-06-07T01:31:31.627Z,100.00
2019-06-07T01:34:00.733Z,100.00
2019-06-07T01:36:31.088Z,100.00
2019-06-07T01:39:00.901Z,100.00
2019-06-07T01:41:30.926Z,100.00
2019-06-07T01:44:00.716Z,100.00
2019-06-07T01:46:30.376Z,100.00
2019-06-07T01:48:59.993Z,100.00
2019-06-07T01:51:30.698Z,100.00
2019-06-07T01:54:48.721Z,100.00
2019-06-07T01:56:32.040Z,100.00
2019-06-07T01:59:01.642Z,100.00
2019-06-07T02:01:35.088Z,100.00
2019-06-07T02:04:03.334Z,100.00
2019-06-07T02:06:33.183Z,100.00
2019-06-07T02:09:02.962Z,100.00
2019-06-07T02:11:33.689Z,100.00
2019-06-07T02:14:03.666Z,100.00
2019-06-07T02:16:33.229Z,100.00
2019-06-07T02:19:03.921Z,100.00
2019-06-07T02:21:34.516Z,100.00
2019-06-07T02:24:04.439Z,100.00
2019-06-07T02:26:34.019Z,100.00
2019-06-07T02:29:03.587Z,100.00
2019-06-07T02:31:39.153Z,100.00
2019-06-07T02:34:04.551Z,100.00
2019-06-07T02:36:40.834Z,100.00
2019-06-07T02:39:07.557Z,100.00
2019-06-07T02:41:40.098Z,100.00
2019-06-07T02:44:08.619Z,100.00
2019-06-07T02:46:46.712Z,100.00
2019-06-07T02:49:09.566Z,100.00
2019-06-07T02:51:41.547Z,100.00
2019-06-07T02:54:10.487Z,100.00
2019-06-07T02:56:56.279Z,100.00
2019-06-07T02:59:11.378Z,100.00
2019-06-07T03:01:42.419Z,100.00
2019-06-07T03:04:13.038Z,100.00
2019-06-07T03:06:44.303Z,100.00
2019-06-07T03:09:14.116Z,100.00
2019-06-07T03:11:45.532Z,100.00
2019-06-07T03:14:16.537Z,100.00
2019-06-07T03:16:57.136Z,100.00
2019-06-07T03:19:37.905Z,100.00
2019-06-07T03:22:06.712Z,100.00
2019-06-07T03:24:41.707Z,100.00
2019-06-07T03:27:34.686Z,100.00
2019-06-07T03:29:41.334Z,100.00
2019-06-07T03:32:11.049Z,100.00
2019-06-07T03:34:43.505Z,100.00
2019-06-07T03:37:12.061Z,100.00
2019-06-07T03:39:41.709Z,100.00
2019-06-07T03:42:11.386Z,100.00
2019-06-07T03:44:41.629Z,100.00
2019-06-07T03:47:11.446Z,100.00
2019-06-07T03:49:42.563Z,100.00
2019-06-07T03:52:12.523Z,100.00
2019-06-07T03:54:42.113Z,100.00
2019-06-07T03:57:11.708Z,100.00
2019-06-07T03:59:41.617Z,100.00
2019-06-07T04:02:11.392Z,100.00
2019-06-07T04:04:41.071Z,100.00
2019-06-07T04:07:10.812Z,100.00
2019-06-07T04:09:43.083Z,100.00
2019-06-07T04:12:11.825Z,100.00
2019-06-07T04:14:42.994Z,100.00
2019-06-07T04:17:12.794Z,100.00
2019-06-07T04:19:43.534Z,100.00
2019-06-07T04:22:13.440Z,100.00
2019-06-07T04:24:43.064Z,100.00
2019-06-07T04:27:12.644Z,100.00
2019-06-07T04:30:05.309Z,100.00
2019-06-07T04:32:13.574Z,100.00
2019-06-07T04:34:43.476Z,100.00
2019-06-07T04:37:14.333Z,100.00
2019-06-07T04:39:45.576Z,100.00
2019-06-07T04:42:18.017Z,100.00
2019-06-07T04:44:49.017Z,100.00
2019-06-07T04:47:20.142Z,100.00
2019-06-07T04:49:51.091Z,100.00
2019-06-07T04:52:20.696Z,100.00
2019-06-07T04:54:50.320Z,100.00
2019-06-07T04:57:19.895Z,100.00
2019-06-07T05:00:33.939Z,100.00
2019-06-07T05:02:20.937Z,100.00
2019-06-07T05:04:50.637Z,100.00
2019-06-07T05:07:20.249Z,100.00
2019-06-07T05:09:49.839Z,100.00
2019-06-07T05:12:19.427Z,100.00
2019-06-07T05:14:49.073Z,100.00
2019-06-07T05:17:18.664Z,100.00
2019-06-07T05:19:48.323Z,100.00
2019-06-07T05:22:17.998Z,100.00
2019-06-07T05:24:47.695Z,100.00
2019-06-07T05:27:17.282Z,100.00
2019-06-07T05:30:08.812Z,100.00
2019-06-07T05:32:18.662Z,100.00
2019-06-07T05:34:48.223Z,100.00
2019-06-07T05:37:17.821Z,100.00
2019-06-07T05:39:47.409Z,100.00
2019-06-07T05:42:17.012Z,100.00
2019-06-07T05:44:46.592Z,100.00
2019-06-07T05:47:16.157Z,100.00
2019-06-07T05:49:47.183Z,100.00
2019-06-07T05:52:17.163Z,100.00
2019-06-07T05:54:47.099Z,100.00
2019-06-07T05:57:16.856Z,100.00
2019-06-07T05:59:47.572Z,100.00
2019-06-07T06:02:22.571Z,100.00
2019-06-07T06:04:49.595Z,100.00
2019-06-07T06:07:19.327Z,100.00
2019-06-07T06:09:48.921Z,100.00
2019-06-07T06:12:34.139Z,100.00
2019-06-07T06:14:49.871Z,100.00
2019-06-07T06:17:19.524Z,100.00
2019-06-07T06:19:52.489Z,100.00
2019-06-07T06:22:20.453Z,100.00
2019-06-07T06:25:29.743Z,100.00
2019-06-07T06:28:02.644Z,100.00
2019-06-07T06:29:53.054Z,100.00
2019-06-07T06:34:55.871Z,100.00
2019-06-07T06:37:25.431Z,100.00
2019-06-07T06:39:55.132Z,100.00
2019-06-07T06:42:24.750Z,100.00
2019-06-07T06:44:54.563Z,100.00
2019-06-07T06:47:24.172Z,100.00
2019-06-07T06:49:54.584Z,100.00
2019-06-07T06:52:24.473Z,100.00
2019-06-07T06:55:00.432Z,100.00
2019-06-07T06:57:25.538Z,100.00
2019-06-07T06:59:55.316Z,100.00
2019-06-07T07:02:24.981Z,100.00
2019-06-07T07:04:54.739Z,100.00
2019-06-07T07:07:26.714Z,100.00
2019-06-07T07:09:59.231Z,100.00
2019-06-07T07:12:28.592Z,100.00
2019-06-07T07:14:58.179Z,100.00
2019-06-07T07:17:47.948Z,100.00
2019-06-07T07:19:59.196Z,100.00
2019-06-07T07:22:28.989Z,100.00
2019-06-07T07:24:58.918Z,100.00
2019-06-07T07:27:28.801Z,100.00
2019-06-07T07:30:34.829Z,100.00
2019-06-07T07:32:30.109Z,100.00
2019-06-07T07:35:00.836Z,100.00
2019-06-07T07:37:30.925Z,100.00
2019-06-07T07:40:21.249Z,100.00
2019-06-07T07:42:32.163Z,98.33
2019-06-07T07:45:02.054Z,98.33
2019-06-07T07:47:31.811Z,95.37
2019-06-07T07:50:01.554Z,83.54
2019-06-07T07:52:31.323Z,83.54
2019-06-07T07:55:01.160Z,84.06
2019-06-07T07:57:31.082Z,88.75
2019-06-07T08:00:25.719Z,89.22
2019-06-07T08:02:32.377Z,89.22
2019-06-07T08:05:28.870Z,86.20
2019-06-07T08:07:33.623Z,81.67
2019-06-07T08:10:04.465Z,78.06
2019-06-07T08:12:55.830Z,82.65
2019-06-07T08:15:07.573Z,75.14
2019-06-07T08:17:37.505Z,74.99
2019-06-07T08:20:07.613Z,76.81
2019-06-07T08:22:37.434Z,88.11
2019-06-07T08:25:08.437Z,80.21
2019-06-07T08:27:38.408Z,77.45
2019-06-07T08:30:46.418Z,78.80
2019-06-07T08:32:40.288Z,72.94
2019-06-07T08:35:10.486Z,75.29
2019-06-07T08:38:14.722Z,72.25
2019-06-07T08:40:13.083Z,61.91
2019-06-07T08:43:04.443Z,60.79
2019-06-07T08:45:14.665Z,60.25
2019-06-07T08:47:44.500Z,54.67
2019-06-07T08:50:15.238Z,56.79
2019-06-07T08:52:45.080Z,52.40
2019-06-07T08:55:16.504Z,54.66
2019-06-07T08:57:46.347Z,53.82
2019-06-07T09:00:43.183Z,50.44
2019-06-07T09:02:49.408Z,51.47
2019-06-07T09:05:20.975Z,50.57
2019-06-07T09:08:13.529Z,49.01
2019-06-07T09:10:22.746Z,47.26
2019-06-07T09:12:54.392Z,47.71
2019-06-07T09:15:24.654Z,48.48
2019-06-07T09:18:35.001Z,50.73
2019-06-07T09:20:36.847Z,47.01
2019-06-07T09:23:08.218Z,47.38
2019-06-07T09:25:34.317Z,50.00
2019-06-07T09:28:14.276Z,48.98
2019-06-07T09:30:44.428Z,46.29
2019-06-07T09:33:14.365Z,46.52
2019-06-07T09:35:44.123Z,44.34
2019-06-07T09:38:24.766Z,44.57
2019-06-07T09:40:45.473Z,48.08
2019-06-07T09:45:46.782Z,47.22
2019-06-07T09:49:08.428Z,44.31
2019-06-07T09:50:48.133Z,45.89
2019-06-07T09:53:22.543Z,45.16
2019-06-07T09:55:49.532Z,47.71
2019-06-07T10:00:51.151Z,45.01
2019-06-07T10:03:22.562Z,44.30
2019-06-07T10:05:52.373Z,44.95
2019-06-07T10:09:42.472Z,42.39
2019-06-07T10:10:53.784Z,43.62
2019-06-07T10:13:23.702Z,42.32
2019-06-07T10:15:53.797Z,43.29
2019-06-07T10:18:23.563Z,42.69
2019-06-07T10:20:53.335Z,43.63
2019-06-07T10:23:23.167Z,42.79
2019-06-07T10:25:52.908Z,44.52
2019-06-07T10:28:22.749Z,43.66
2019-06-07T10:30:52.544Z,44.06
2019-06-07T10:33:22.441Z,41.94
2019-06-07T10:35:52.259Z,41.71
2019-06-07T10:38:22.048Z,40.87
2019-06-07T10:40:51.847Z,42.39
2019-06-07T10:43:21.628Z,39.13
2019-06-07T10:45:51.401Z,42.86
2019-06-07T10:48:21.232Z,41.89
2019-06-07T10:50:51.132Z,38.16
2019-06-07T10:53:20.889Z,37.10
2019-06-07T10:55:50.675Z,41.35
2019-06-07T10:58:20.648Z,37.66
2019-06-07T11:00:50.724Z,38.05
2019-06-07T11:03:20.990Z,38.44
2019-06-07T11:05:50.884Z,36.98
2019-06-07T11:08:20.770Z,33.75
2019-06-07T11:10:50.505Z,38.07
2019-06-07T11:13:20.323Z,36.43
2019-06-07T11:15:50.119Z,36.31
2019-06-07T11:18:21.525Z,37.95
2019-06-07T11:20:51.295Z,37.17
2019-06-07T11:23:21.064Z,35.09
2019-06-07T11:25:50.852Z,35.09
2019-06-07T11:28:20.626Z,34.52
2019-06-07T11:30:50.405Z,36.23
2019-06-07T11:33:20.158Z,31.73
2019-06-07T11:35:49.792Z,34.13
2019-06-07T11:38:19.435Z,33.23
2019-06-07T11:40:49.040Z,34.55
2019-06-07T11:43:19.102Z,33.97
2019-06-07T11:45:48.902Z,33.83
2019-06-07T11:48:18.517Z,32.65
2019-06-07T11:50:48.178Z,31.14
2019-06-07T11:53:19.950Z,33.90
2019-06-07T11:55:49.209Z,30.92
2019-06-07T11:58:21.682Z,34.48
2019-06-07T12:00:50.221Z,33.89
2019-06-07T12:03:19.934Z,33.03
2019-06-07T12:05:49.565Z,33.45
2019-06-07T12:08:19.190Z,33.72
2019-06-07T12:10:48.789Z,34.38
2019-06-07T12:13:18.996Z,32.15
2019-06-07T12:15:49.325Z,30.77
2019-06-07T12:18:19.698Z,32.85
2019-06-07T12:20:49.536Z,30.66
2019-06-07T12:23:20.184Z,31.81
2019-06-07T12:25:50.024Z,32.00
2019-06-07T12:28:20.901Z,32.20
2019-06-07T12:30:50.681Z,31.87
2019-06-07T12:33:21.595Z,33.51
2019-06-07T12:35:51.369Z,34.29
2019-06-07T12:38:22.512Z,31.23
2019-06-07T12:40:57.503Z,33.79
2019-06-07T12:43:23.602Z,33.13
2019-06-07T12:45:53.226Z,32.76
2019-06-07T12:48:25.971Z,32.06
2019-06-07T12:50:54.131Z,31.63
2019-06-07T12:53:27.651Z,33.28
2019-06-07T12:55:55.253Z,31.62
2019-06-07T12:58:33.656Z,31.04
2019-06-07T13:00:59.609Z,30.78
2019-06-07T13:03:27.637Z,31.77
2019-06-07T13:05:57.267Z,32.35
2019-06-07T13:08:28.177Z,29.51
2019-06-07T13:11:13.934Z,30.51
2019-06-07T13:13:29.375Z,31.99
2019-06-07T13:15:59.011Z,31.93
2019-06-07T13:18:29.505Z,31.84
2019-06-07T13:20:59.146Z,32.25
2019-06-07T13:23:29.128Z,33.87
2019-06-07T13:25:58.873Z,32.81
2019-06-07T13:28:28.954Z,31.12
2019-06-07T13:30:58.676Z,33.48
2019-06-07T13:33:35.282Z,33.66
2019-06-07T13:35:59.632Z,32.89
2019-06-07T13:38:29.372Z,32.55
2019-06-07T13:40:59.044Z,30.21
2019-06-07T13:43:28.659Z,30.74
2019-06-07T13:45:58.328Z,31.16
2019-06-07T13:48:28.102Z,29.88
2019-06-07T13:50:57.760Z,28.43
2019-06-07T13:53:28.936Z,31.48
2019-06-07T13:55:58.779Z,30.88
2019-06-07T13:58:28.760Z,31.30
2019-06-07T14:00:58.489Z,30.27
2019-06-07T14:03:32.765Z,31.30
2019-06-07T14:05:59.371Z,30.71
2019-06-07T14:08:29.727Z,32.10
2019-06-07T14:10:59.493Z,32.44
2019-06-07T14:13:30.343Z,31.25
2019-06-07T14:16:00.257Z,32.01
2019-06-07T14:18:30.596Z,30.34
2019-06-07T14:21:00.318Z,32.51
2019-06-07T14:23:45.899Z,31.40
2019-06-07T14:26:01.287Z,31.85
2019-06-07T14:28:34.013Z,33.39
2019-06-07T14:31:02.438Z,32.79
2019-06-07T14:33:33.704Z,31.86
2019-06-07T14:36:03.481Z,32.71
2019-06-07T14:38:37.033Z,33.46
2019-06-07T14:41:04.361Z,32.45
2019-06-07T14:43:34.213Z,32.37
2019-06-07T14:46:03.875Z,33.71
2019-06-07T14:48:34.571Z,34.80
2019-06-07T14:51:04.393Z,32.26
2019-06-07T14:53:35.066Z,35.56
2019-06-07T14:56:04.994Z,33.34
2019-06-07T14:58:40.064Z,34.52
2019-06-07T15:01:06.067Z,34.70
2019-06-07T15:03:35.756Z,33.89
2019-06-07T15:06:05.393Z,36.53
2019-06-07T15:08:35.065Z,33.46
2019-06-07T15:11:04.649Z,33.65
2019-06-07T15:13:35.762Z,36.84
2019-06-07T15:16:05.656Z,32.08
2019-06-07T15:18:36.099Z,34.14
2019-06-07T15:21:05.856Z,31.05
2019-06-07T15:23:35.496Z,36.28
2019-06-07T15:26:05.089Z,41.18
2019-06-07T15:28:36.397Z,37.63
2019-06-07T15:31:05.983Z,37.36
2019-06-07T15:33:36.494Z,38.80
2019-06-07T15:36:06.231Z,33.85
2019-06-07T15:38:37.178Z,32.64
2019-06-07T15:41:07.057Z,31.95
2019-06-07T15:43:37.411Z,31.21
2019-06-07T15:46:07.167Z,31.22
2019-06-07T15:48:38.177Z,30.40
2019-06-07T15:51:07.926Z,34.55
2019-06-07T15:53:42.424Z,34.01
2019-06-07T15:56:08.905Z,34.28
2019-06-07T15:58:39.362Z,31.10
2019-06-07T16:01:09.119Z,31.65
2019-06-07T16:03:39.866Z,33.41
2019-06-07T16:06:09.567Z,35.68
2019-06-07T16:08:40.400Z,34.76
2019-06-07T16:11:10.126Z,34.47
2019-06-07T16:13:40.827Z,34.28
2019-06-07T16:16:10.701Z,34.29
2019-06-07T16:18:41.577Z,37.49
2019-06-07T16:21:11.304Z,39.46
2019-06-07T16:23:42.106Z,39.22
2019-06-07T16:26:11.914Z,40.07
2019-06-07T16:28:42.559Z,40.69
2019-06-07T16:31:12.242Z,40.05
2019-06-07T16:33:43.059Z,41.24
2019-06-07T16:36:12.900Z,43.08
2019-06-07T16:38:42.624Z,42.10
2019-06-07T16:41:12.253Z,43.72
2019-06-07T16:43:42.717Z,43.10
2019-06-07T16:46:12.370Z,43.13
2019-06-07T16:48:42.938Z,39.20
2019-06-07T16:51:12.612Z,41.43
2019-06-07T16:53:42.391Z,41.51
2019-06-07T16:56:12.139Z,38.65
2019-06-07T16:58:42.298Z,40.42
2019-06-07T17:01:12.152Z,39.88
2019-06-07T17:03:41.763Z,39.97
2019-06-07T17:06:11.411Z,40.43
2019-06-07T17:08:42.126Z,41.47
2019-06-07T17:11:11.926Z,42.55
2019-06-07T17:13:42.319Z,43.47
2019-06-07T17:16:12.077Z,43.77
2019-06-07T17:18:42.943Z,44.24
2019-06-07T17:21:12.783Z,44.70
2019-06-07T17:23:43.715Z,45.21
2019-06-07T17:26:13.444Z,44.94
2019-06-07T17:28:43.689Z,44.13
2019-06-07T17:31:13.516Z,43.81
2019-06-07T17:33:44.039Z,43.29
2019-06-07T17:36:13.710Z,43.13
2019-06-07T17:38:44.449Z,42.77
2019-06-07T17:41:14.189Z,42.50
2019-06-07T17:43:52.993Z,42.71
2019-06-07T17:46:15.154Z,42.27
2019-06-07T17:48:45.550Z,42.92
2019-06-07T17:51:15.163Z,42.28
2019-06-07T17:53:45.837Z,41.76
2019-06-07T17:56:15.408Z,41.52
2019-06-07T17:58:46.142Z,41.66
2019-06-07T18:01:16.108Z,42.77
2019-06-07T18:03:47.062Z,42.02
2019-06-07T18:06:18.204Z,42.37
2019-06-07T18:08:49.524Z,42.87
2019-06-07T18:11:19.211Z,42.83
2019-06-07T18:14:05.102Z,42.79
2019-06-07T18:16:20.100Z,41.88
2019-06-07T18:18:50.678Z,41.88
2019-06-07T18:21:20.296Z,42.16
2019-06-07T18:23:50.324Z,41.90
2019-06-07T18:26:19.968Z,41.97
2019-06-07T18:28:50.579Z,42.87
2019-06-07T18:31:20.246Z,43.09
2019-06-07T18:33:50.910Z,43.03
2019-06-07T18:36:20.579Z,42.88
2019-06-07T18:38:50.914Z,42.72
2019-06-07T18:41:20.603Z,42.46
2019-06-07T18:43:51.140Z,42.26
2019-06-07T18:46:20.820Z,42.69
2019-06-07T18:48:50.646Z,42.19
2019-06-07T18:51:20.202Z,43.83
2019-06-07T18:53:49.859Z,42.80
2019-06-07T18:56:19.443Z,42.90
2019-06-07T18:58:49.165Z,42.47
2019-06-07T19:01:18.829Z,42.23
2019-06-07T19:03:49.029Z,42.08
2019-06-07T19:06:19.780Z,41.97
2019-06-07T19:08:52.277Z,41.93
2019-06-07T19:11:20.725Z,42.12
2019-06-07T19:13:50.946Z,42.68
2019-06-07T19:16:20.599Z,43.08
2019-06-07T19:18:50.178Z,43.13
2019-06-07T19:21:19.770Z,43.54
2019-06-07T19:23:50.024Z,44.23
2019-06-07T19:26:19.772Z,43.62
2019-06-07T19:28:50.549Z,43.92
2019-06-07T19:31:20.208Z,44.10
2019-06-07T19:33:50.926Z,43.62
2019-06-07T19:36:20.755Z,43.42
2019-06-07T19:38:51.708Z,43.52
2019-06-07T19:41:21.357Z,43.25
2019-06-07T19:43:52.112Z,42.97
2019-06-07T19:46:21.867Z,43.67
2019-06-07T19:48:52.496Z,43.80
2019-06-07T19:51:22.191Z,43.86
2019-06-07T19:53:52.901Z,43.70
2019-06-07T19:56:22.588Z,44.38
2019-06-07T19:58:53.402Z,43.08
2019-06-07T20:01:23.071Z,43.06
2019-06-07T20:03:53.777Z,43.03
2019-06-07T20:06:23.511Z,43.44
2019-06-07T20:08:54.293Z,43.34
2019-06-07T20:11:23.989Z,43.71
2019-06-07T20:13:54.475Z,44.24
2019-06-07T20:16:24.108Z,44.49
2019-06-07T20:18:53.772Z,44.83
2019-06-07T20:21:23.362Z,44.86
2019-06-07T20:23:52.949Z,48.04
2019-06-07T20:26:22.654Z,45.75
2019-06-07T20:28:52.260Z,46.75
2019-06-07T20:31:21.991Z,46.28
2019-06-07T20:33:51.534Z,46.36
2019-06-07T20:36:21.135Z,46.64
2019-06-07T20:38:50.706Z,48.38
2019-06-07T20:41:20.283Z,47.71
2019-06-07T20:43:50.017Z,47.32
2019-06-07T20:46:19.604Z,47.91
2019-06-07T20:48:49.201Z,47.23
2019-06-07T20:51:18.841Z,47.88
2019-06-07T20:53:48.524Z,47.59
2019-06-07T20:56:18.123Z,47.37
2019-06-07T20:58:47.743Z,49.21
2019-06-07T21:01:17.303Z,49.97
2019-06-07T21:03:46.925Z,49.32
2019-06-07T21:06:16.504Z,49.02
2019-06-07T21:08:46.167Z,48.92
2019-06-07T21:11:15.772Z,47.80
2019-06-07T21:13:45.394Z,47.72
2019-06-07T21:16:15.003Z,47.53
2019-06-07T21:18:44.590Z,48.60
2019-06-07T21:21:14.274Z,53.72
2019-06-07T21:23:43.847Z,53.46
2019-06-07T21:26:13.437Z,53.52
2019-06-07T21:28:43.047Z,53.44
2019-06-07T21:31:12.662Z,52.69
2019-06-07T21:33:42.326Z,52.57
2019-06-07T21:36:11.946Z,53.53
2019-06-07T21:38:41.551Z,54.53
2019-06-07T21:41:12.460Z,53.58
2019-06-07T21:43:42.270Z,54.15
2019-06-07T21:46:19.621Z,54.04
2019-06-07T21:48:43.180Z,53.33
2019-06-07T21:51:12.768Z,52.90
2019-06-07T21:53:42.370Z,53.12
2019-06-07T21:56:13.252Z,53.57
2019-06-07T21:58:43.044Z,53.24
2019-06-07T22:01:16.525Z,56.31
2019-06-07T22:03:46.131Z,54.57
2019-06-07T22:06:15.924Z,53.67
2019-06-07T22:08:45.504Z,54.53
2019-06-07T22:11:15.066Z,56.30
2019-06-07T22:13:44.714Z,56.30
2019-06-07T22:16:26.256Z,58.49
2019-06-07T22:18:45.677Z,56.98
2019-06-07T22:21:15.252Z,56.68
2019-06-07T22:23:44.860Z,57.07
2019-06-07T22:26:15.569Z,58.01
2019-06-07T22:28:45.398Z,56.43
2019-06-07T22:31:15.095Z,56.07
2019-06-07T22:33:44.616Z,56.00
2019-06-07T22:36:15.871Z,56.13
2019-06-07T22:38:45.732Z,56.48
2019-06-07T22:41:15.897Z,55.98
2019-06-07T22:43:45.676Z,55.20
2019-06-07T22:46:15.331Z,55.16
2019-06-07T22:48:44.928Z,54.75
2019-06-07T22:51:16.148Z,59.17
2019-06-07T22:53:45.841Z,58.20
2019-06-07T22:56:23.524Z,56.17
2019-06-07T22:58:53.119Z,54.43
2019-06-07T23:01:22.982Z,54.74
2019-06-07T23:03:52.632Z,56.38
2019-06-07T23:06:22.209Z,54.98
2019-06-07T23:08:51.779Z,61.45
2019-06-07T23:11:21.392Z,60.67
2019-06-07T23:13:50.988Z,57.65
2019-06-07T23:16:20.593Z,58.97
2019-06-07T23:18:50.180Z,58.49
2019-06-07T23:21:20.185Z,56.51
2019-06-07T23:23:49.940Z,56.56
2019-06-07T23:26:20.582Z,56.84
2019-06-07T23:28:50.380Z,58.58
2019-06-07T23:31:20.835Z,59.82
2019-06-07T23:33:50.524Z,61.32
2019-06-07T23:36:21.395Z,61.45
2019-06-07T23:38:50.985Z,61.65
2019-06-07T23:41:22.172Z,61.78
2019-06-07T23:43:51.993Z,62.93
2019-06-07T23:46:21.774Z,61.95
2019-06-07T23:48:51.485Z,67.92
2019-06-07T23:51:22.018Z,62.99
2019-06-07T23:53:51.881Z,62.67
2019-06-07T23:56:22.302Z,67.59
2019-06-07T23:58:51.961Z,65.76
